sensor_id;sensor_type;location;lat;lon;timestamp;pressure;altitude;pressure_sealevel;temperature;humidity
10464;BME280;5279;42.048;24.638;2023-05-02T00:00:56;97900.59;;;12.29;88.16
10464;BME280;5279;42.048;24.638;2023-05-02T00:03:25;97901.97;;;12.33;90.54
10464;BME280;5279;42.048;24.638;2023-05-02T00:05:52;97905.22;;;12.27;90.35
10464;BME280;5279;42.048;24.638;2023-05-02T00:08:19;97906.44;;;12.32;87.79
10464;BME280;5279;42.048;24.638;2023-05-02T00:10:46;97909.66;;;12.36;86.46
10464;BME280;5279;42.048;24.638;2023-05-02T00:13:13;97905.84;;;12.38;90.36
10464;BME280;5279;42.048;24.638;2023-05-02T00:15:41;97907.38;;;12.14;93.77
10464;BME280;5279;42.048;24.638;2023-05-02T00:18:08;97902.16;;;11.94;95.22
10464;BME280;5279;42.048;24.638;2023-05-02T00:20:38;97901.09;;;11.78;97.45
10464;BME280;5279;42.048;24.638;2023-05-02T00:23:06;97893.56;;;11.73;98.50
10464;BME280;5279;42.048;24.638;2023-05-02T00:25:33;97899.94;;;11.80;97.64
10464;BME280;5279;42.048;24.638;2023-05-02T00:28:00;97907.34;;;11.86;95.79
10464;BME280;5279;42.048;24.638;2023-05-02T00:30:28;97911.91;;;12.03;93.56
10464;BME280;5279;42.048;24.638;2023-05-02T00:32:55;97922.25;;;12.07;93.23
10464;BME280;5279;42.048;24.638;2023-05-02T00:35:22;97932.00;;;12.16;93.50
10464;BME280;5279;42.048;24.638;2023-05-02T00:37:51;97914.69;;;12.02;94.47
10464;BME280;5279;42.048;24.638;2023-05-02T00:40:18;97903.53;;;11.98;96.65
10464;BME280;5279;42.048;24.638;2023-05-02T00:42:45;97926.50;;;11.80;99.55
10464;BME280;5279;42.048;24.638;2023-05-02T00:45:13;97925.09;;;11.86;98.23
10464;BME280;5279;42.048;24.638;2023-05-02T00:47:40;97924.84;;;11.79;98.80
10464;BME280;5279;42.048;24.638;2023-05-02T00:50:08;97930.28;;;11.68;100.00
10464;BME280;5279;42.048;24.638;2023-05-02T00:52:36;97929.44;;;11.58;100.00
10464;BME280;5279;42.048;24.638;2023-05-02T00:55:05;97924.84;;;11.60;100.00
10464;BME280;5279;42.048;24.638;2023-05-02T00:57:34;97931.03;;;11.51;100.00
10464;BME280;5279;42.048;24.638;2023-05-02T01:00:02;97926.84;;;11.29;100.00
10464;BME280;5279;42.048;24.638;2023-05-02T01:02:36;97929.38;;;11.21;100.00
10464;BME280;5279;42.048;24.638;2023-05-02T01:05:14;97932.28;;;10.80;100.00
10464;BME280;5279;42.048;24.638;2023-05-02T01:08:09;97935.22;;;10.86;100.00
10464;BME280;5279;42.048;24.638;2023-05-02T01:10:58;97935.47;;;10.64;100.00
10464;BME280;5279;42.048;24.638;2023-05-02T01:13:33;97936.00;;;10.39;100.00
10464;BME280;5279;42.048;24.638;2023-05-02T01:16:02;97936.00;;;10.58;100.00
10464;BME280;5279;42.048;24.638;2023-05-02T01:18:35;97937.13;;;10.56;100.00
10464;BME280;5279;42.048;24.638;2023-05-02T01:21:07;97940.75;;;10.64;100.00
10464;BME280;5279;42.048;24.638;2023-05-02T01:23:44;97926.81;;;10.62;100.00
10464;BME280;5279;42.048;24.638;2023-05-02T01:26:34;97933.53;;;10.66;100.00
10464;BME280;5279;42.048;24.638;2023-05-02T01:29:04;97934.22;;;10.68;100.00
10464;BME280;5279;42.048;24.638;2023-05-02T01:31:34;97934.06;;;10.51;100.00
10464;BME280;5279;42.048;24.638;2023-05-02T01:34:04;97934.94;;;10.61;100.00
10464;BME280;5279;42.048;24.638;2023-05-02T01:36:33;97927.66;;;10.53;100.00
10464;BME280;5279;42.048;24.638;2023-05-02T01:39:03;97937.25;;;10.45;100.00
10464;BME280;5279;42.048;24.638;2023-05-02T01:41:33;97941.94;;;10.31;100.00
10464;BME280;5279;42.048;24.638;2023-05-02T01:44:04;97940.72;;;10.35;100.00
10464;BME280;5279;42.048;24.638;2023-05-02T01:46:35;97937.38;;;10.33;100.00
10464;BME280;5279;42.048;24.638;2023-05-02T01:49:06;97927.00;;;10.30;100.00
10464;BME280;5279;42.048;24.638;2023-05-02T01:51:34;97947.38;;;10.30;100.00
10464;BME280;5279;42.048;24.638;2023-05-02T01:54:04;97948.50;;;10.37;100.00
10464;BME280;5279;42.048;24.638;2023-05-02T01:56:34;97947.66;;;10.27;100.00
10464;BME280;5279;42.048;24.638;2023-05-02T01:59:05;97943.22;;;10.07;100.00
10464;BME280;5279;42.048;24.638;2023-05-02T02:01:35;97945.69;;;9.99;100.00
10464;BME280;5279;42.048;24.638;2023-05-02T02:04:03;97945.00;;;10.06;100.00
10464;BME280;5279;42.048;24.638;2023-05-02T02:06:32;97940.81;;;10.04;100.00
10464;BME280;5279;42.048;24.638;2023-05-02T02:08:59;97933.06;;;10.12;100.00
10464;BME280;5279;42.048;24.638;2023-05-02T02:11:33;97944.72;;;10.00;100.00
10464;BME280;5279;42.048;24.638;2023-05-02T02:14:05;97948.06;;;10.02;100.00
10464;BME280;5279;42.048;24.638;2023-05-02T02:16:37;97943.31;;;9.96;100.00
10464;BME280;5279;42.048;24.638;2023-05-02T02:19:07;97940.22;;;9.91;100.00
10464;BME280;5279;42.048;24.638;2023-05-02T02:21:38;97943.31;;;9.96;100.00
10464;BME280;5279;42.048;24.638;2023-05-02T02:24:06;97944.19;;;10.06;100.00
10464;BME280;5279;42.048;24.638;2023-05-02T02:26:36;97951.81;;;10.20;100.00
10464;BME280;5279;42.048;24.638;2023-05-02T02:29:05;97949.59;;;10.25;100.00
10464;BME280;5279;42.048;24.638;2023-05-02T02:31:32;97943.16;;;10.18;100.00
10464;BME280;5279;42.048;24.638;2023-05-02T02:34:01;97946.25;;;10.23;100.00
10464;BME280;5279;42.048;24.638;2023-05-02T02:36:33;97939.94;;;10.14;100.00
10464;BME280;5279;42.048;24.638;2023-05-02T02:39:11;97948.47;;;10.18;100.00
10464;BME280;5279;42.048;24.638;2023-05-02T02:41:42;97952.22;;;9.95;100.00
10464;BME280;5279;42.048;24.638;2023-05-02T02:44:21;97961.16;;;10.03;100.00
10464;BME280;5279;42.048;24.638;2023-05-02T02:46:59;97947.38;;;10.00;100.00
10464;BME280;5279;42.048;24.638;2023-05-02T02:49:37;97945.53;;;9.91;100.00
10464;BME280;5279;42.048;24.638;2023-05-02T02:52:09;97949.44;;;9.96;100.00
10464;BME280;5279;42.048;24.638;2023-05-02T02:54:42;97943.56;;;9.93;100.00
10464;BME280;5279;42.048;24.638;2023-05-02T02:57:16;97960.81;;;9.87;100.00
10464;BME280;5279;42.048;24.638;2023-05-02T02:59:52;97969.72;;;9.86;100.00
10464;BME280;5279;42.048;24.638;2023-05-02T03:02:27;97961.09;;;9.84;100.00
10464;BME280;5279;42.048;24.638;2023-05-02T03:04:55;97970.91;;;9.52;100.00
10464;BME280;5279;42.048;24.638;2023-05-02T03:07:23;97976.78;;;9.55;100.00
10464;BME280;5279;42.048;24.638;2023-05-02T03:09:53;97974.84;;;9.57;100.00
10464;BME280;5279;42.048;24.638;2023-05-02T03:12:20;97978.31;;;9.58;100.00
10464;BME280;5279;42.048;24.638;2023-05-02T03:14:49;97972.66;;;9.62;100.00
10464;BME280;5279;42.048;24.638;2023-05-02T03:17:17;97978.59;;;9.75;100.00
10464;BME280;5279;42.048;24.638;2023-05-02T03:19:44;97970.44;;;9.67;100.00
10464;BME280;5279;42.048;24.638;2023-05-02T03:22:11;97980.78;;;9.70;100.00
10464;BME280;5279;42.048;24.638;2023-05-02T03:24:39;97993.94;;;9.81;100.00
10464;BME280;5279;42.048;24.638;2023-05-02T03:27:06;97986.19;;;9.89;100.00
10464;BME280;5279;42.048;24.638;2023-05-02T03:29:33;97989.22;;;9.85;100.00
10464;BME280;5279;42.048;24.638;2023-05-02T03:32:02;97983.47;;;9.80;100.00
10464;BME280;5279;42.048;24.638;2023-05-02T03:34:29;97985.78;;;9.94;100.00
10464;BME280;5279;42.048;24.638;2023-05-02T03:36:56;97994.88;;;10.01;100.00
10464;BME280;5279;42.048;24.638;2023-05-02T03:39:23;97992.94;;;10.03;100.00
10464;BME280;5279;42.048;24.638;2023-05-02T03:41:50;98004.38;;;10.04;100.00
10464;BME280;5279;42.048;24.638;2023-05-02T03:44:17;98004.31;;;9.94;100.00
10464;BME280;5279;42.048;24.638;2023-05-02T03:46:44;98006.41;;;9.91;100.00
10464;BME280;5279;42.048;24.638;2023-05-02T03:49:13;98010.09;;;9.78;100.00
10464;BME280;5279;42.048;24.638;2023-05-02T03:51:40;98011.50;;;9.82;100.00
10464;BME280;5279;42.048;24.638;2023-05-02T03:54:07;98026.00;;;9.88;100.00
10464;BME280;5279;42.048;24.638;2023-05-02T03:56:34;98018.84;;;10.00;100.00
10464;BME280;5279;42.048;24.638;2023-05-02T03:59:01;98012.97;;;10.17;100.00
10464;BME280;5279;42.048;24.638;2023-05-02T04:01:30;98011.06;;;10.28;100.00
10464;BME280;5279;42.048;24.638;2023-05-02T04:03:57;98013.22;;;10.44;100.00
10464;BME280;5279;42.048;24.638;2023-05-02T04:06:25;98022.75;;;10.56;100.00
10464;BME280;5279;42.048;24.638;2023-05-02T04:08:52;98017.34;;;10.67;100.00
10464;BME280;5279;42.048;24.638;2023-05-02T04:11:19;98019.47;;;10.73;100.00
10464;BME280;5279;42.048;24.638;2023-05-02T04:13:46;98017.81;;;10.91;100.00
10464;BME280;5279;42.048;24.638;2023-05-02T04:16:13;98023.72;;;11.05;100.00
10464;BME280;5279;42.048;24.638;2023-05-02T04:18:40;98022.06;;;11.23;100.00
10464;BME280;5279;42.048;24.638;2023-05-02T04:21:07;98025.72;;;11.41;100.00
10464;BME280;5279;42.048;24.638;2023-05-02T04:23:36;98029.78;;;11.55;100.00
10464;BME280;5279;42.048;24.638;2023-05-02T04:26:03;98024.88;;;11.50;100.00
10464;BME280;5279;42.048;24.638;2023-05-02T04:28:31;98042.25;;;11.73;100.00
10464;BME280;5279;42.048;24.638;2023-05-02T04:30:58;98046.41;;;11.85;100.00
10464;BME280;5279;42.048;24.638;2023-05-02T04:33:24;98032.97;;;11.96;100.00
10464;BME280;5279;42.048;24.638;2023-05-02T04:35:51;98036.19;;;12.00;100.00
10464;BME280;5279;42.048;24.638;2023-05-02T04:38:18;98038.25;;;12.16;100.00
10464;BME280;5279;42.048;24.638;2023-05-02T04:40:49;98032.31;;;12.31;100.00
10464;BME280;5279;42.048;24.638;2023-05-02T04:43:16;98022.66;;;12.40;99.04
10464;BME280;5279;42.048;24.638;2023-05-02T04:45:42;98031.22;;;12.61;95.29
10464;BME280;5279;42.048;24.638;2023-05-02T04:48:09;98023.91;;;12.73;95.60
10464;BME280;5279;42.048;24.638;2023-05-02T04:50:36;98023.94;;;12.90;96.52
10464;BME280;5279;42.048;24.638;2023-05-02T04:53:04;98032.81;;;13.08;95.87
10464;BME280;5279;42.048;24.638;2023-05-02T04:55:31;98033.44;;;13.38;97.55
10464;BME280;5279;42.048;24.638;2023-05-02T04:58:00;98038.03;;;13.63;96.75
10464;BME280;5279;42.048;24.638;2023-05-02T05:00:27;98032.09;;;13.69;93.29
10464;BME280;5279;42.048;24.638;2023-05-02T05:02:55;98040.59;;;13.90;90.42
10464;BME280;5279;42.048;24.638;2023-05-02T05:05:22;98034.31;;;13.99;88.98
10464;BME280;5279;42.048;24.638;2023-05-02T05:07:50;98040.81;;;13.97;87.55
10464;BME280;5279;42.048;24.638;2023-05-02T05:10:18;98043.59;;;14.13;88.73
10464;BME280;5279;42.048;24.638;2023-05-02T05:12:45;98040.00;;;14.04;89.43
10464;BME280;5279;42.048;24.638;2023-05-02T05:15:16;98041.88;;;14.04;90.64
10464;BME280;5279;42.048;24.638;2023-05-02T05:17:45;98034.63;;;13.96;92.80
10464;BME280;5279;42.048;24.638;2023-05-02T05:20:12;98039.34;;;14.02;96.55
10464;BME280;5279;42.048;24.638;2023-05-02T05:22:39;98036.69;;;14.02;98.83
10464;BME280;5279;42.048;24.638;2023-05-02T05:25:07;98042.63;;;14.40;97.84
10464;BME280;5279;42.048;24.638;2023-05-02T05:27:34;98052.81;;;14.44;100.00
10464;BME280;5279;42.048;24.638;2023-05-02T05:30:02;98050.34;;;14.51;100.00
10464;BME280;5279;42.048;24.638;2023-05-02T05:32:31;98044.78;;;14.70;100.00
10464;BME280;5279;42.048;24.638;2023-05-02T05:34:58;98051.88;;;14.87;98.91
10464;BME280;5279;42.048;24.638;2023-05-02T05:37:25;98052.66;;;15.13;96.07
10464;BME280;5279;42.048;24.638;2023-05-02T05:39:52;98054.31;;;15.14;95.98
10464;BME280;5279;42.048;24.638;2023-05-02T05:42:19;98058.72;;;15.31;93.07
10464;BME280;5279;42.048;24.638;2023-05-02T05:44:46;98052.72;;;15.46;92.23
10464;BME280;5279;42.048;24.638;2023-05-02T05:47:18;98058.13;;;15.62;92.65
10464;BME280;5279;42.048;24.638;2023-05-02T05:49:46;98053.13;;;15.83;87.92
10464;BME280;5279;42.048;24.638;2023-05-02T05:52:13;98059.50;;;15.98;85.93
10464;BME280;5279;42.048;24.638;2023-05-02T05:54:40;98067.47;;;16.14;85.08
10464;BME280;5279;42.048;24.638;2023-05-02T05:57:06;98065.00;;;16.05;83.20
10464;BME280;5279;42.048;24.638;2023-05-02T05:59:34;98066.00;;;16.12;84.40
10464;BME280;5279;42.048;24.638;2023-05-02T06:02:01;98067.00;;;16.35;80.98
10464;BME280;5279;42.048;24.638;2023-05-02T06:04:28;98072.50;;;16.25;78.65
10464;BME280;5279;42.048;24.638;2023-05-02T06:06:56;98067.47;;;16.38;78.63
10464;BME280;5279;42.048;24.638;2023-05-02T06:09:23;98068.81;;;16.59;75.76
10464;BME280;5279;42.048;24.638;2023-05-02T06:11:50;98067.09;;;16.74;74.32
10464;BME280;5279;42.048;24.638;2023-05-02T06:14:17;98071.25;;;16.76;73.93
10464;BME280;5279;42.048;24.638;2023-05-02T06:16:44;98077.75;;;16.90;72.95
10464;BME280;5279;42.048;24.638;2023-05-02T06:19:10;98072.75;;;16.87;75.80
10464;BME280;5279;42.048;24.638;2023-05-02T06:21:37;98066.41;;;16.80;73.74
10464;BME280;5279;42.048;24.638;2023-05-02T06:24:06;98077.31;;;17.09;73.23
10464;BME280;5279;42.048;24.638;2023-05-02T06:26:33;98068.00;;;16.97;74.14
10464;BME280;5279;42.048;24.638;2023-05-02T06:29:00;98065.22;;;17.21;73.39
10464;BME280;5279;42.048;24.638;2023-05-02T06:31:27;98049.59;;;17.33;71.58
10464;BME280;5279;42.048;24.638;2023-05-02T06:33:53;98063.75;;;17.49;69.29
10464;BME280;5279;42.048;24.638;2023-05-02T06:36:20;98060.13;;;17.34;67.60
10464;BME280;5279;42.048;24.638;2023-05-02T06:38:47;98063.44;;;17.44;67.19
10464;BME280;5279;42.048;24.638;2023-05-02T06:41:15;98059.50;;;17.24;68.01
10464;BME280;5279;42.048;24.638;2023-05-02T06:43:45;98057.41;;;17.42;68.47
10464;BME280;5279;42.048;24.638;2023-05-02T06:46:11;98058.38;;;17.49;67.27
10464;BME280;5279;42.048;24.638;2023-05-02T06:48:38;98059.25;;;17.73;68.01
10464;BME280;5279;42.048;24.638;2023-05-02T06:51:05;98059.91;;;17.97;67.30
10464;BME280;5279;42.048;24.638;2023-05-02T06:53:32;98064.75;;;18.02;65.13
10464;BME280;5279;42.048;24.638;2023-05-02T06:55:59;98057.56;;;18.17;65.10
10464;BME280;5279;42.048;24.638;2023-05-02T06:58:29;98055.94;;;18.45;65.71
10464;BME280;5279;42.048;24.638;2023-05-02T07:00:56;98059.97;;;18.49;62.56
10464;BME280;5279;42.048;24.638;2023-05-02T07:03:22;98058.41;;;18.70;63.14
10464;BME280;5279;42.048;24.638;2023-05-02T07:05:49;98058.44;;;18.84;61.88
10464;BME280;5279;42.048;24.638;2023-05-02T07:08:16;98062.59;;;19.01;62.47
10464;BME280;5279;42.048;24.638;2023-05-02T07:11:01;98055.81;;;18.91;62.53
10464;BME280;5279;42.048;24.638;2023-05-02T07:13:29;98058.03;;;19.17;61.53
10464;BME280;5279;42.048;24.638;2023-05-02T07:15:56;98057.91;;;19.25;60.44
10464;BME280;5279;42.048;24.638;2023-05-02T07:18:23;98060.50;;;19.33;59.59
10464;BME280;5279;42.048;24.638;2023-05-02T07:20:50;98076.63;;;19.47;58.33
10464;BME280;5279;42.048;24.638;2023-05-02T07:23:17;98064.66;;;19.50;58.41
10464;BME280;5279;42.048;24.638;2023-05-02T07:25:46;98064.84;;;19.34;57.96
10464;BME280;5279;42.048;24.638;2023-05-02T07:28:13;98069.88;;;19.51;57.74
10464;BME280;5279;42.048;24.638;2023-05-02T07:30:41;98068.56;;;19.47;58.76
10464;BME280;5279;42.048;24.638;2023-05-02T07:33:08;98060.13;;;19.21;59.01
10464;BME280;5279;42.048;24.638;2023-05-02T07:35:36;98060.13;;;19.36;58.13
10464;BME280;5279;42.048;24.638;2023-05-02T07:38:03;98056.84;;;19.70;60.28
10464;BME280;5279;42.048;24.638;2023-05-02T07:40:30;98054.41;;;19.75;56.41
10464;BME280;5279;42.048;24.638;2023-05-02T07:42:57;98043.78;;;19.88;57.50
10464;BME280;5279;42.048;24.638;2023-05-02T07:45:26;98057.34;;;19.80;57.18
10464;BME280;5279;42.048;24.638;2023-05-02T07:47:54;98059.63;;;19.61;57.08
10464;BME280;5279;42.048;24.638;2023-05-02T07:50:22;98059.63;;;20.04;56.98
10464;BME280;5279;42.048;24.638;2023-05-02T07:52:49;98055.78;;;19.92;54.94
10464;BME280;5279;42.048;24.638;2023-05-02T07:55:15;98055.78;;;20.34;54.17
10464;BME280;5279;42.048;24.638;2023-05-02T07:57:42;98056.56;;;20.28;56.02
10464;BME280;5279;42.048;24.638;2023-05-02T08:00:10;98042.72;;;20.31;55.16
10464;BME280;5279;42.048;24.638;2023-05-02T08:02:37;98050.28;;;20.21;54.57
10464;BME280;5279;42.048;24.638;2023-05-02T08:05:06;98050.00;;;20.37;55.05
10464;BME280;5279;42.048;24.638;2023-05-02T08:07:33;98058.63;;;20.26;52.93
10464;BME280;5279;42.048;24.638;2023-05-02T08:10:00;98044.25;;;20.40;52.22
10464;BME280;5279;42.048;24.638;2023-05-02T08:12:27;98051.00;;;20.57;51.46
10464;BME280;5279;42.048;24.638;2023-05-02T08:14:54;98053.59;;;20.72;50.36
10464;BME280;5279;42.048;24.638;2023-05-02T08:17:21;98047.13;;;20.66;49.35
10464;BME280;5279;42.048;24.638;2023-05-02T08:19:48;98044.50;;;20.80;49.53
10464;BME280;5279;42.048;24.638;2023-05-02T08:22:16;98045.75;;;20.77;48.52
10464;BME280;5279;42.048;24.638;2023-05-02T08:24:43;98041.91;;;20.93;50.10
10464;BME280;5279;42.048;24.638;2023-05-02T08:27:10;98035.47;;;20.94;46.03
10464;BME280;5279;42.048;24.638;2023-05-02T08:29:36;98033.97;;;21.19;45.89
10464;BME280;5279;42.048;24.638;2023-05-02T08:32:04;98027.41;;;21.41;44.14
10464;BME280;5279;42.048;24.638;2023-05-02T08:34:30;98030.06;;;21.28;42.75
10464;BME280;5279;42.048;24.638;2023-05-02T08:36:58;98026.25;;;21.63;43.58
10464;BME280;5279;42.048;24.638;2023-05-02T08:39:26;98022.34;;;21.79;40.96
10464;BME280;5279;42.048;24.638;2023-05-02T08:41:53;98011.31;;;21.80;41.26
10464;BME280;5279;42.048;24.638;2023-05-02T08:44:20;98022.16;;;22.13;40.74
10464;BME280;5279;42.048;24.638;2023-05-02T08:46:48;98012.84;;;22.16;40.29
10464;BME280;5279;42.048;24.638;2023-05-02T08:49:17;98016.78;;;22.20;40.77
10464;BME280;5279;42.048;24.638;2023-05-02T08:51:45;98015.94;;;22.39;40.94
10464;BME280;5279;42.048;24.638;2023-05-02T08:54:16;98011.56;;;22.38;41.84
10464;BME280;5279;42.048;24.638;2023-05-02T08:56:45;98001.00;;;22.17;41.15
10464;BME280;5279;42.048;24.638;2023-05-02T08:59:12;98012.59;;;22.50;41.83
10464;BME280;5279;42.048;24.638;2023-05-02T09:01:40;98003.88;;;22.35;41.19
10464;BME280;5279;42.048;24.638;2023-05-02T09:04:10;97997.66;;;22.67;39.68
10464;BME280;5279;42.048;24.638;2023-05-02T09:06:37;97995.97;;;22.79;39.79
10464;BME280;5279;42.048;24.638;2023-05-02T09:09:05;97993.16;;;23.06;41.19
10464;BME280;5279;42.048;24.638;2023-05-02T09:11:32;97993.28;;;23.24;38.61
10464;BME280;5279;42.048;24.638;2023-05-02T09:14:13;97979.91;;;23.42;38.67
10464;BME280;5279;42.048;24.638;2023-05-02T09:16:40;97968.59;;;23.58;37.33
10464;BME280;5279;42.048;24.638;2023-05-02T09:19:07;97971.41;;;23.70;36.09
10464;BME280;5279;42.048;24.638;2023-05-02T09:21:36;97974.16;;;23.63;33.98
10464;BME280;5279;42.048;24.638;2023-05-02T09:24:14;97964.38;;;23.62;35.12
10464;BME280;5279;42.048;24.638;2023-05-02T09:26:56;97967.44;;;23.72;33.55
10464;BME280;5279;42.048;24.638;2023-05-02T09:29:26;97953.91;;;23.72;34.13
10464;BME280;5279;42.048;24.638;2023-05-02T09:31:55;97963.81;;;23.85;32.70
10464;BME280;5279;42.048;24.638;2023-05-02T09:34:22;97938.34;;;23.92;31.58
10464;BME280;5279;42.048;24.638;2023-05-02T09:36:50;97960.25;;;24.16;33.15
10464;BME280;5279;42.048;24.638;2023-05-02T09:39:20;97950.13;;;24.47;31.13
10464;BME280;5279;42.048;24.638;2023-05-02T09:41:47;97940.22;;;24.60;30.31
10464;BME280;5279;42.048;24.638;2023-05-02T09:44:16;97941.56;;;24.51;30.07
10464;BME280;5279;42.048;24.638;2023-05-02T09:46:46;97953.50;;;24.68;29.13
10464;BME280;5279;42.048;24.638;2023-05-02T09:49:14;97930.91;;;24.92;28.35
10464;BME280;5279;42.048;24.638;2023-05-02T09:51:43;97930.81;;;25.17;28.58
10464;BME280;5279;42.048;24.638;2023-05-02T09:54:11;97934.91;;;25.37;27.89
10464;BME280;5279;42.048;24.638;2023-05-02T09:56:51;97922.59;;;25.53;26.23
10464;BME280;5279;42.048;24.638;2023-05-02T09:59:18;97922.25;;;25.61;28.06
10464;BME280;5279;42.048;24.638;2023-05-02T10:01:56;97920.75;;;25.65;26.96
10464;BME280;5279;42.048;24.638;2023-05-02T10:04:24;97922.09;;;25.97;28.08
10464;BME280;5279;42.048;24.638;2023-05-02T10:06:52;97920.03;;;26.23;26.08
10464;BME280;5279;42.048;24.638;2023-05-02T10:09:19;97916.44;;;26.57;26.35
10464;BME280;5279;42.048;24.638;2023-05-02T10:11:50;97909.00;;;26.52;25.82
10464;BME280;5279;42.048;24.638;2023-05-02T10:14:19;97913.84;;;26.39;24.65
10464;BME280;5279;42.048;24.638;2023-05-02T10:16:54;97919.47;;;26.02;26.48
10464;BME280;5279;42.048;24.638;2023-05-02T10:19:29;97910.09;;;26.17;25.73
10464;BME280;5279;42.048;24.638;2023-05-02T10:21:57;97910.66;;;26.30;25.48
10464;BME280;5279;42.048;24.638;2023-05-02T10:24:25;97910.25;;;26.73;26.10
10464;BME280;5279;42.048;24.638;2023-05-02T10:26:52;97904.91;;;26.78;25.52
10464;BME280;5279;42.048;24.638;2023-05-02T10:29:20;97904.53;;;26.46;23.97
10464;BME280;5279;42.048;24.638;2023-05-02T10:31:49;97893.78;;;26.40;24.92
10464;BME280;5279;42.048;24.638;2023-05-02T10:34:17;97893.72;;;26.63;26.23
10464;BME280;5279;42.048;24.638;2023-05-02T10:36:44;97885.09;;;26.78;26.21
10464;BME280;5279;42.048;24.638;2023-05-02T10:39:11;97894.19;;;26.72;25.61
10464;BME280;5279;42.048;24.638;2023-05-02T10:41:39;97901.34;;;26.26;25.16
10464;BME280;5279;42.048;24.638;2023-05-02T10:44:07;97889.88;;;26.36;27.32
10464;BME280;5279;42.048;24.638;2023-05-02T10:46:35;97887.88;;;26.20;26.33
10464;BME280;5279;42.048;24.638;2023-05-02T10:49:05;97897.31;;;26.52;26.04
10464;BME280;5279;42.048;24.638;2023-05-02T10:51:33;97895.59;;;26.86;25.08
10464;BME280;5279;42.048;24.638;2023-05-02T10:54:19;97890.72;;;27.28;24.85
10464;BME280;5279;42.048;24.638;2023-05-02T10:57:09;97889.59;;;27.40;24.27
10464;BME280;5279;42.048;24.638;2023-05-02T10:59:37;97884.78;;;27.31;25.05
10464;BME280;5279;42.048;24.638;2023-05-02T11:05:11;97875.66;;;26.69;25.91
10464;BME280;5279;42.048;24.638;2023-05-02T11:07:38;97881.47;;;26.49;25.84
10464;BME280;5279;42.048;24.638;2023-05-02T11:10:24;97886.09;;;26.14;25.17
10464;BME280;5279;42.048;24.638;2023-05-02T11:12:53;97883.38;;;26.37;26.51
10464;BME280;5279;42.048;24.638;2023-05-02T11:15:54;97882.09;;;26.28;25.04
10464;BME280;5279;42.048;24.638;2023-05-02T11:18:24;97877.59;;;26.22;26.23
10464;BME280;5279;42.048;24.638;2023-05-02T11:21:25;97883.13;;;26.27;25.39
10464;BME280;5279;42.048;24.638;2023-05-02T11:24:37;97887.38;;;25.99;25.19
10464;BME280;5279;42.048;24.638;2023-05-02T11:27:37;97873.81;;;26.11;25.34
10464;BME280;5279;42.048;24.638;2023-05-02T11:30:04;97868.59;;;26.33;25.83
10464;BME280;5279;42.048;24.638;2023-05-02T11:35:34;97860.59;;;26.89;26.89
10464;BME280;5279;42.048;24.638;2023-05-02T11:38:05;97848.25;;;26.98;25.28
10464;BME280;5279;42.048;24.638;2023-05-02T11:40:32;97852.31;;;26.96;25.71
10464;BME280;5279;42.048;24.638;2023-05-02T11:43:03;97850.00;;;27.04;24.11
10464;BME280;5279;42.048;24.638;2023-05-02T11:45:37;97848.44;;;27.08;25.39
10464;BME280;5279;42.048;24.638;2023-05-02T11:48:05;97839.97;;;27.22;25.76
10464;BME280;5279;42.048;24.638;2023-05-02T11:50:32;97839.25;;;27.26;24.81
10464;BME280;5279;42.048;24.638;2023-05-02T11:52:59;97842.41;;;27.35;25.08
10464;BME280;5279;42.048;24.638;2023-05-02T11:55:28;97842.91;;;27.32;24.59
10464;BME280;5279;42.048;24.638;2023-05-02T11:57:55;97831.66;;;27.28;24.74
10464;BME280;5279;42.048;24.638;2023-05-02T12:00:26;97828.22;;;27.33;25.50
10464;BME280;5279;42.048;24.638;2023-05-02T12:02:53;97823.66;;;27.22;24.32
10464;BME280;5279;42.048;24.638;2023-05-02T12:05:26;97827.00;;;27.12;24.69
10464;BME280;5279;42.048;24.638;2023-05-02T12:07:56;97813.19;;;27.13;26.09
10464;BME280;5279;42.048;24.638;2023-05-02T12:10:36;97792.19;;;26.97;27.03
10464;BME280;5279;42.048;24.638;2023-05-02T12:13:03;97818.84;;;26.95;25.06
10464;BME280;5279;42.048;24.638;2023-05-02T12:15:31;97809.41;;;27.14;25.16
10464;BME280;5279;42.048;24.638;2023-05-02T12:17:58;97797.00;;;27.07;25.63
10464;BME280;5279;42.048;24.638;2023-05-02T12:20:25;97796.47;;;26.93;24.96
10464;BME280;5279;42.048;24.638;2023-05-02T12:22:52;97810.94;;;26.82;25.25
10464;BME280;5279;42.048;24.638;2023-05-02T12:25:20;97806.63;;;26.58;24.71
10464;BME280;5279;42.048;24.638;2023-05-02T12:28:01;97799.25;;;26.82;24.54
10464;BME280;5279;42.048;24.638;2023-05-02T12:30:29;97787.53;;;26.81;25.52
10464;BME280;5279;42.048;24.638;2023-05-02T12:32:56;97787.13;;;26.61;25.77
10464;BME280;5279;42.048;24.638;2023-05-02T12:35:24;97790.13;;;26.76;26.07
10464;BME280;5279;42.048;24.638;2023-05-02T12:37:51;97775.00;;;26.52;23.90
10464;BME280;5279;42.048;24.638;2023-05-02T12:40:19;97763.63;;;26.55;24.89
10464;BME280;5279;42.048;24.638;2023-05-02T12:42:57;97768.84;;;26.56;25.48
10464;BME280;5279;42.048;24.638;2023-05-02T12:45:26;97766.25;;;26.50;24.37
10464;BME280;5279;42.048;24.638;2023-05-02T12:47:58;97753.50;;;26.39;24.36
10464;BME280;5279;42.048;24.638;2023-05-02T12:50:34;97740.22;;;26.26;25.61
10464;BME280;5279;42.048;24.638;2023-05-02T12:53:02;97750.22;;;26.37;25.08
10464;BME280;5279;42.048;24.638;2023-05-02T12:55:29;97749.59;;;25.72;24.08
10464;BME280;5279;42.048;24.638;2023-05-02T12:58:00;97758.09;;;25.75;24.78
10464;BME280;5279;42.048;24.638;2023-05-02T13:00:29;97742.88;;;25.51;26.79
10464;BME280;5279;42.048;24.638;2023-05-02T13:02:57;97740.88;;;25.70;26.45
10464;BME280;5279;42.048;24.638;2023-05-02T13:05:24;97737.00;;;25.77;25.45
10464;BME280;5279;42.048;24.638;2023-05-02T13:07:51;97744.66;;;25.57;24.64
10464;BME280;5279;42.048;24.638;2023-05-02T13:10:21;97745.44;;;25.46;25.74
10464;BME280;5279;42.048;24.638;2023-05-02T13:12:49;97738.38;;;25.57;25.56
10464;BME280;5279;42.048;24.638;2023-05-02T13:15:16;97736.47;;;25.34;24.52